createdAt,value
2018-07-05T18:53:37.164Z,32.70
2018-07-05T18:56:16.414Z,32.70
2018-07-05T18:58:55.819Z,32.80
2018-07-05T19:01:35.155Z,32.90
2018-07-05T19:04:14.509Z,32.70
2018-07-05T19:06:54.241Z,32.70
2018-07-05T19:10:08.601Z,32.00
2018-07-05T19:19:39.944Z,32.50
2018-07-05T19:22:54.520Z,32.30
2018-07-05T19:26:08.885Z,31.60
2018-07-05T19:29:23.262Z,31.30
2018-07-05T19:32:37.601Z,31.00
2018-07-05T19:35:51.979Z,31.30
2018-07-05T19:39:06.471Z,32.50
2018-07-05T19:42:20.982Z,31.50
2018-07-05T19:45:35.562Z,31.70
2018-07-05T19:48:50.249Z,31.50
2018-07-05T19:52:04.727Z,31.70
2018-07-05T19:55:19.082Z,31.70
2018-07-05T19:58:33.421Z,31.80
2018-07-05T20:01:47.865Z,31.50
2018-07-05T20:05:02.250Z,30.80
2018-07-05T20:08:16.744Z,30.70
2018-07-05T20:11:31.131Z,30.50
2018-07-05T20:14:45.789Z,30.70
2018-07-05T20:18:00.180Z,30.80
2018-07-05T20:21:14.578Z,30.40
2018-07-05T20:24:28.938Z,30.10
2018-07-05T20:27:43.377Z,30.10
2018-07-05T20:30:57.749Z,30.10
2018-07-05T20:34:12.430Z,30.20
2018-07-05T20:37:26.789Z,30.20
2018-07-05T20:40:41.276Z,30.20
2018-07-05T20:43:55.702Z,30.00
2018-07-05T20:47:10.334Z,29.90
2018-07-05T20:50:24.931Z,29.90
2018-07-05T20:53:39.348Z,29.90
2018-07-05T20:56:53.797Z,29.80
2018-07-05T21:00:08.323Z,29.80
2018-07-05T21:03:22.782Z,29.60
2018-07-05T21:06:37.168Z,29.70
2018-07-05T21:09:51.649Z,29.60
2018-07-05T21:13:06.148Z,29.60
2018-07-05T21:16:20.571Z,29.60
2018-07-05T21:19:35.017Z,29.60
2018-07-05T21:22:49.349Z,28.90
2018-07-05T21:26:03.995Z,29.70
2018-07-05T21:29:18.786Z,29.50
2018-07-05T21:32:33.258Z,29.70
2018-07-05T21:35:47.696Z,29.50
2018-07-05T21:39:02.133Z,29.30
2018-07-05T21:42:16.551Z,29.40
2018-07-05T21:45:31.435Z,29.60
2018-07-05T21:48:46.266Z,29.40
2018-07-05T21:52:00.930Z,29.80
2018-07-05T21:55:15.485Z,29.60
2018-07-05T21:58:29.987Z,29.60
2018-07-05T22:01:44.487Z,29.60
2018-07-05T22:04:58.982Z,29.40
2018-07-05T22:08:13.486Z,29.30
2018-07-05T22:11:27.941Z,29.00
2018-07-05T22:17:56.554Z,29.10
2018-07-05T22:21:15.409Z,29.30
2018-07-05T22:24:35.274Z,29.10
2018-07-05T22:27:55.380Z,29.50
2018-07-05T22:31:15.320Z,29.30
2018-07-05T22:34:29.885Z,29.20
2018-07-05T22:37:44.521Z,29.10
2018-07-05T22:40:59.023Z,29.20
2018-07-05T22:44:13.513Z,29.10
2018-07-05T22:47:28.153Z,29.00
2018-07-05T22:50:42.651Z,29.90
2018-07-05T22:53:57.146Z,28.80
2018-07-05T22:57:11.525Z,28.60
2018-07-05T23:00:25.929Z,28.60
2018-07-05T23:03:40.274Z,28.80
2018-07-05T23:06:54.654Z,28.80
2018-07-05T23:10:08.934Z,28.80
2018-07-05T23:13:24.492Z,28.80
2018-07-05T23:16:38.940Z,28.60
2018-07-05T23:19:53.453Z,28.80
2018-07-05T23:26:16.353Z,28.80
2018-07-05T23:32:39.808Z,28.50
2018-07-05T23:35:54.381Z,28.30
2018-07-05T23:39:08.734Z,28.60
2018-07-05T23:42:23.127Z,28.60
2018-07-05T23:45:37.438Z,28.30
2018-07-05T23:48:51.997Z,28.20
2018-07-05T23:52:06.465Z,28.40
2018-07-05T23:55:21.210Z,28.40
2018-07-05T23:58:35.722Z,28.30
